createdAt,value
2018-09-27T00:00:16.824Z,43.70
2018-09-27T00:01:21.179Z,43.70
2018-09-27T00:02:25.438Z,43.60
2018-09-27T00:03:29.881Z,43.70
2018-09-27T00:04:34.411Z,43.70
2018-09-27T00:05:38.701Z,43.70
2018-09-27T00:06:43.198Z,43.70
2018-09-27T00:07:47.802Z,43.70
2018-09-27T00:08:52.239Z,43.70
2018-09-27T00:09:56.738Z,43.70
2018-09-27T00:11:01.337Z,43.70
2018-09-27T00:12:05.868Z,43.80
2018-09-27T00:13:10.361Z,43.60
2018-09-27T00:14:14.893Z,43.70
2018-09-27T00:15:19.262Z,43.70
2018-09-27T00:16:23.567Z,43.80
2018-09-27T00:17:28.008Z,43.70
2018-09-27T00:18:32.479Z,43.80
2018-09-27T00:19:36.868Z,43.70
2018-09-27T00:20:41.285Z,43.80
2018-09-27T00:21:45.721Z,43.80
2018-09-27T00:22:50.136Z,43.80
2018-09-27T00:23:54.462Z,43.80
2018-09-27T00:24:58.882Z,43.80
2018-09-27T00:26:03.176Z,43.90
2018-09-27T00:27:07.670Z,43.90
2018-09-27T00:28:12.099Z,43.80
2018-09-27T00:29:16.635Z,43.80
2018-09-27T00:30:21.008Z,43.80
2018-09-27T00:31:25.294Z,43.90
2018-09-27T00:32:29.681Z,43.80
2018-09-27T00:33:34.072Z,43.80
2018-09-27T00:34:38.434Z,43.80
2018-09-27T00:35:42.646Z,43.90
2018-09-27T00:36:47.174Z,43.80
2018-09-27T00:37:51.393Z,43.80
2018-09-27T00:38:55.844Z,43.80
2018-09-27T00:40:00.248Z,43.80
2018-09-27T00:41:04.612Z,43.90
2018-09-27T00:42:09.164Z,44.50
2018-09-27T00:43:13.396Z,43.80
2018-09-27T00:44:17.822Z,43.90
2018-09-27T00:45:22.219Z,43.90
2018-09-27T00:46:26.652Z,43.90
2018-09-27T00:47:30.904Z,43.90
2018-09-27T00:48:35.394Z,43.90
2018-09-27T00:49:39.674Z,43.90
2018-09-27T00:50:44.165Z,43.90
2018-09-27T00:51:48.621Z,43.90
2018-09-27T00:52:53.110Z,43.90
2018-09-27T00:53:57.543Z,43.90
2018-09-27T00:55:02.019Z,43.90
2018-09-27T00:56:06.569Z,44.00
2018-09-27T00:57:11.016Z,43.90
2018-09-27T00:58:15.442Z,44.10
2018-09-27T00:59:20.659Z,43.90
2018-09-27T01:00:25.084Z,44.00
2018-09-27T01:01:29.518Z,43.90
2018-09-27T01:02:33.825Z,43.90
2018-09-27T01:03:38.112Z,44.00
2018-09-27T01:04:42.501Z,44.00
2018-09-27T01:05:47.103Z,43.90
2018-09-27T01:06:51.452Z,43.90
2018-09-27T01:07:55.833Z,44.00
2018-09-27T01:09:00.035Z,44.00
2018-09-27T01:10:04.363Z,44.00
2018-09-27T01:11:08.789Z,44.00
2018-09-27T01:12:13.170Z,44.00
2018-09-27T01:13:17.415Z,44.00
2018-09-27T01:14:21.654Z,44.00
2018-09-27T01:15:25.926Z,44.00
2018-09-27T01:16:30.149Z,44.00
2018-09-27T01:17:34.532Z,44.00
2018-09-27T01:18:38.910Z,44.00
2018-09-27T01:19:43.231Z,43.90
2018-09-27T01:20:47.559Z,44.70
2018-09-27T01:21:51.883Z,44.00
2018-09-27T01:22:56.401Z,44.70
2018-09-27T01:24:00.873Z,44.10
2018-09-27T01:25:05.298Z,44.10
2018-09-27T01:26:09.754Z,44.10
2018-09-27T01:27:14.203Z,44.00
2018-09-27T01:28:18.573Z,44.10
2018-09-27T01:29:22.913Z,44.10
2018-09-27T01:30:27.392Z,44.10
2018-09-27T01:31:31.804Z,44.00
2018-09-27T01:32:36.344Z,44.10
2018-09-27T01:33:40.710Z,44.10
2018-09-27T01:34:45.219Z,44.10
2018-09-27T01:35:49.700Z,44.10
2018-09-27T01:36:54.228Z,44.10
2018-09-27T01:37:58.776Z,44.10
2018-09-27T01:39:03.185Z,44.10
2018-09-27T01:40:07.620Z,44.10
2018-09-27T01:41:12.097Z,44.20
2018-09-27T01:42:16.577Z,44.10
2018-09-27T01:43:20.878Z,44.30
2018-09-27T01:44:25.215Z,44.10
2018-09-27T01:45:29.468Z,44.10
2018-09-27T01:46:33.726Z,44.20
2018-09-27T01:47:37.994Z,44.20
2018-09-27T01:48:42.435Z,44.20
2018-09-27T01:49:46.963Z,44.20
2018-09-27T01:50:51.497Z,44.10
2018-09-27T01:51:55.874Z,44.10
2018-09-27T01:53:00.379Z,44.20
2018-09-27T01:54:04.710Z,44.20
2018-09-27T01:55:09.197Z,44.20
2018-09-27T01:56:13.637Z,44.20
2018-09-27T01:57:18.016Z,44.20
2018-09-27T01:58:22.504Z,44.20
2018-09-27T01:59:26.944Z,44.20
2018-09-27T02:00:31.319Z,44.20
2018-09-27T02:01:35.658Z,44.90
2018-09-27T02:02:40.152Z,44.20
2018-09-27T02:03:44.578Z,44.20
2018-09-27T02:04:49.045Z,44.20
2018-09-27T02:05:53.435Z,44.20
2018-09-27T02:06:57.832Z,44.20
2018-09-27T02:08:02.292Z,44.30
2018-09-27T02:09:06.690Z,44.20
2018-09-27T02:10:11.176Z,44.20
2018-09-27T02:11:15.644Z,44.20
2018-09-27T02:12:20.105Z,44.20
2018-09-27T02:13:24.549Z,44.20
2018-09-27T02:14:28.781Z,44.20
2018-09-27T02:15:33.245Z,44.20
2018-09-27T02:16:37.774Z,44.20
2018-09-27T02:17:42.216Z,44.20
2018-09-27T02:18:46.752Z,44.20
2018-09-27T02:19:51.139Z,44.20
2018-09-27T02:20:55.593Z,44.30
2018-09-27T02:22:00.043Z,44.30
2018-09-27T02:23:04.339Z,44.30
2018-09-27T02:24:08.737Z,44.30
2018-09-27T02:25:13.204Z,44.30
2018-09-27T02:26:17.494Z,44.30
2018-09-27T02:27:21.980Z,44.30
2018-09-27T02:28:26.258Z,44.30
2018-09-27T02:29:30.710Z,44.30
2018-09-27T02:30:36.074Z,44.30
2018-09-27T02:31:41.336Z,44.30
2018-09-27T02:32:46.618Z,44.30
2018-09-27T02:33:51.908Z,44.30
2018-09-27T02:34:57.163Z,44.40
2018-09-27T02:36:02.519Z,44.40
2018-09-27T02:37:07.870Z,44.30
2018-09-27T02:38:13.162Z,44.40
2018-09-27T02:39:18.427Z,44.40
2018-09-27T02:40:23.641Z,44.40
2018-09-27T02:41:28.989Z,44.40
2018-09-27T02:42:34.372Z,45.00
2018-09-27T02:43:39.634Z,44.40
2018-09-27T02:44:44.923Z,44.40
2018-09-27T02:45:50.173Z,44.40
2018-09-27T02:46:55.977Z,44.40
2018-09-27T02:48:01.243Z,44.40
2018-09-27T02:49:06.531Z,44.40
2018-09-27T02:50:11.768Z,44.50
2018-09-27T02:51:17.099Z,44.40
2018-09-27T02:52:22.479Z,44.40
2018-09-27T02:53:27.770Z,44.40
2018-09-27T02:54:33.042Z,44.40
2018-09-27T02:55:38.281Z,44.40
2018-09-27T02:56:43.636Z,44.40
2018-09-27T02:57:48.875Z,44.40
2018-09-27T02:58:54.233Z,44.40
2018-09-27T02:59:59.691Z,44.40
2018-09-27T03:01:05.078Z,45.00
2018-09-27T03:02:10.307Z,44.40
2018-09-27T03:03:15.712Z,44.40
2018-09-27T03:04:20.928Z,44.40
2018-09-27T03:05:26.179Z,44.40
2018-09-27T03:06:31.545Z,44.40
2018-09-27T03:07:36.991Z,44.50
2018-09-27T03:08:42.301Z,44.40
2018-09-27T03:09:47.633Z,44.40
2018-09-27T03:10:52.896Z,44.40
2018-09-27T03:11:58.323Z,44.40
2018-09-27T03:13:03.589Z,44.40
2018-09-27T03:14:08.913Z,44.40
2018-09-27T03:15:14.206Z,44.40
2018-09-27T03:16:19.496Z,44.40
2018-09-27T03:17:24.986Z,44.40
2018-09-27T03:18:30.282Z,44.40
2018-09-27T03:19:35.654Z,44.40
2018-09-27T03:20:40.897Z,44.40
2018-09-27T03:21:46.198Z,44.40
2018-09-27T03:22:51.502Z,44.40
2018-09-27T03:23:56.810Z,44.40
2018-09-27T03:25:02.066Z,44.50
2018-09-27T03:26:07.419Z,44.50
2018-09-27T03:27:12.666Z,44.50
2018-09-27T03:28:17.959Z,44.50
2018-09-27T03:29:23.265Z,44.50
2018-09-27T03:30:28.514Z,44.50
2018-09-27T03:31:33.744Z,44.50
2018-09-27T03:32:39.017Z,44.50
2018-09-27T03:33:44.300Z,44.50
2018-09-27T03:34:49.600Z,45.10
2018-09-27T03:35:54.891Z,44.50
2018-09-27T03:37:00.181Z,44.50
2018-09-27T03:38:05.557Z,44.50
2018-09-27T03:39:10.911Z,44.50
2018-09-27T03:40:16.297Z,44.50
2018-09-27T03:41:21.482Z,44.50
2018-09-27T03:42:26.782Z,44.50
2018-09-27T03:43:32.134Z,44.50
2018-09-27T03:44:37.606Z,44.50
2018-09-27T03:45:42.817Z,44.50
2018-09-27T03:46:48.202Z,44.50
2018-09-27T03:47:53.384Z,44.50
2018-09-27T03:48:58.748Z,44.50
2018-09-27T03:50:04.167Z,44.50
2018-09-27T03:51:09.448Z,44.50
2018-09-27T03:52:14.701Z,44.50
2018-09-27T03:53:19.949Z,44.50
2018-09-27T03:54:25.176Z,44.50
2018-09-27T03:55:30.448Z,44.60
2018-09-27T03:56:35.780Z,44.50
2018-09-27T03:57:41.062Z,44.60
2018-09-27T03:58:46.413Z,44.50
2018-09-27T03:59:51.673Z,44.50
2018-09-27T04:00:57.017Z,44.60
2018-09-27T04:02:02.324Z,44.50
2018-09-27T04:03:07.584Z,44.50
2018-09-27T04:04:12.824Z,44.60
2018-09-27T04:05:18.203Z,44.50
2018-09-27T04:06:23.431Z,44.60
2018-09-27T04:07:28.769Z,44.60
2018-09-27T04:08:34.079Z,44.60
2018-09-27T04:09:39.343Z,44.60
2018-09-27T04:10:44.573Z,44.60
2018-09-27T04:11:49.777Z,44.60
2018-09-27T04:12:55.395Z,44.60
2018-09-27T04:14:00.725Z,44.60
2018-09-27T04:15:06.030Z,44.60
2018-09-27T04:16:11.268Z,44.60
2018-09-27T04:17:16.570Z,44.60
2018-09-27T04:18:21.894Z,44.60
2018-09-27T04:19:27.122Z,44.60
2018-09-27T04:20:32.373Z,44.60
2018-09-27T04:21:37.772Z,44.60
2018-09-27T04:22:43.057Z,44.60
2018-09-27T04:23:48.365Z,44.60
2018-09-27T04:24:53.615Z,44.60
2018-09-27T04:25:58.868Z,44.60
2018-09-27T04:27:04.115Z,44.60
2018-09-27T04:28:09.371Z,44.60
2018-09-27T04:29:14.699Z,44.60
2018-09-27T04:30:19.953Z,44.60
2018-09-27T04:31:25.283Z,44.60
2018-09-27T04:32:30.552Z,44.60
2018-09-27T04:33:35.879Z,44.60
2018-09-27T04:34:41.172Z,44.70
2018-09-27T04:35:46.395Z,44.70
2018-09-27T04:36:51.673Z,44.70
2018-09-27T04:37:56.920Z,44.70
2018-09-27T04:39:02.211Z,44.70
2018-09-27T04:40:07.463Z,44.70
2018-09-27T04:41:12.712Z,44.70
2018-09-27T04:42:17.985Z,44.70
2018-09-27T04:43:23.255Z,44.70
2018-09-27T04:44:28.667Z,44.70
2018-09-27T04:45:33.980Z,44.70
2018-09-27T04:46:39.475Z,45.40
2018-09-27T04:47:44.712Z,44.70
2018-09-27T04:48:49.993Z,44.70
2018-09-27T04:49:55.266Z,44.70
2018-09-27T04:51:00.544Z,44.70
2018-09-27T04:52:05.800Z,44.70
2018-09-27T04:53:11.075Z,44.70
2018-09-27T04:54:16.383Z,44.70
2018-09-27T04:55:21.629Z,44.70
2018-09-27T04:56:26.918Z,44.70
2018-09-27T04:57:32.200Z,44.70
2018-09-27T04:58:37.492Z,44.70
2018-09-27T04:59:42.724Z,44.80
2018-09-27T05:01:13.797Z,44.80
2018-09-27T05:02:24.583Z,44.80
2018-09-27T05:03:49.396Z,44.80
2018-09-27T05:04:54.703Z,44.80
2018-09-27T05:05:59.959Z,44.80
2018-09-27T05:07:05.305Z,44.80
2018-09-27T05:08:10.622Z,44.80
2018-09-27T05:09:15.912Z,44.80
2018-09-27T05:10:21.191Z,44.80
2018-09-27T05:11:26.632Z,44.70
2018-09-27T05:12:31.880Z,44.70
2018-09-27T05:13:37.324Z,44.70
2018-09-27T05:14:42.567Z,44.70
2018-09-27T05:15:47.916Z,44.70
2018-09-27T05:16:53.147Z,44.70
2018-09-27T05:17:58.475Z,44.60
2018-09-27T05:19:03.713Z,44.60
2018-09-27T05:20:09.067Z,44.60
2018-09-27T05:21:14.382Z,44.60
2018-09-27T05:22:19.813Z,44.60
2018-09-27T05:23:25.094Z,44.60
2018-09-27T05:24:30.406Z,44.60
2018-09-27T05:25:35.756Z,44.60
2018-09-27T05:26:41.040Z,44.70
2018-09-27T05:27:46.445Z,44.60
2018-09-27T05:28:51.781Z,44.60
2018-09-27T05:29:57.063Z,44.70
2018-09-27T05:31:02.314Z,44.70
2018-09-27T05:32:07.608Z,44.80
2018-09-27T05:33:12.878Z,44.90
2018-09-27T05:34:18.166Z,45.00
2018-09-27T05:35:23.504Z,45.10
2018-09-27T05:36:28.827Z,45.20
2018-09-27T05:37:34.194Z,45.30
2018-09-27T05:38:39.494Z,45.30
2018-09-27T05:39:44.883Z,45.30
2018-09-27T05:40:50.215Z,45.40
2018-09-27T05:41:55.603Z,45.30
2018-09-27T05:43:00.923Z,45.40
2018-09-27T05:44:06.267Z,45.60
2018-09-27T05:45:11.571Z,45.70
2018-09-27T05:46:16.909Z,45.80
2018-09-27T05:47:22.213Z,45.90
2018-09-27T05:48:27.521Z,45.90
2018-09-27T05:49:32.833Z,45.90
2018-09-27T05:50:38.165Z,46.00
2018-09-27T05:51:43.561Z,46.10
2018-09-27T05:52:49.280Z,46.20
2018-09-27T05:53:54.637Z,46.90
2018-09-27T05:55:00.026Z,46.40
2018-09-27T05:56:05.348Z,46.50
2018-09-27T05:57:10.743Z,46.50
2018-09-27T05:58:16.133Z,46.60
2018-09-27T05:59:21.506Z,46.70
2018-09-27T06:00:26.858Z,46.70
2018-09-27T06:01:32.244Z,46.80
2018-09-27T06:02:37.869Z,46.90
2018-09-27T06:03:43.456Z,46.90
2018-09-27T06:04:48.737Z,47.00
2018-09-27T06:05:54.131Z,47.10
2018-09-27T06:06:59.543Z,47.20
2018-09-27T06:08:04.938Z,47.30
2018-09-27T06:09:10.187Z,47.40
2018-09-27T06:10:15.455Z,47.40
2018-09-27T06:11:21.135Z,47.40
2018-09-27T06:12:26.430Z,47.50
2018-09-27T06:13:31.698Z,47.50
2018-09-27T06:14:37.118Z,47.60
2018-09-27T06:15:42.496Z,47.50
2018-09-27T06:16:47.787Z,47.50
2018-09-27T06:17:53.195Z,47.40
2018-09-27T06:18:58.643Z,47.40
2018-09-27T06:20:03.973Z,47.50
2018-09-27T06:21:09.225Z,47.50
2018-09-27T06:22:14.513Z,47.70
2018-09-27T06:23:19.812Z,47.60
2018-09-27T06:24:25.178Z,47.50
2018-09-27T06:25:30.423Z,47.50
2018-09-27T06:26:35.936Z,47.70
2018-09-27T06:27:41.326Z,47.60
2018-09-27T06:28:46.731Z,47.60
2018-09-27T06:29:52.163Z,47.70
2018-09-27T06:30:57.614Z,47.70
2018-09-27T06:32:02.908Z,47.70
2018-09-27T06:33:08.158Z,47.70
2018-09-27T06:34:13.469Z,47.70
2018-09-27T06:35:18.739Z,49.30
2018-09-27T06:36:24.006Z,49.30
2018-09-27T06:37:29.403Z,49.50
2018-09-27T06:38:34.841Z,49.70
2018-09-27T06:39:40.059Z,49.50
2018-09-27T06:40:45.561Z,49.20
2018-09-27T06:41:50.872Z,49.00
2018-09-27T06:42:56.190Z,49.40
2018-09-27T06:44:01.559Z,49.40
2018-09-27T06:45:06.886Z,49.60
2018-09-27T06:46:12.244Z,49.60
2018-09-27T06:47:17.697Z,49.40
2018-09-27T06:48:23.164Z,49.10
2018-09-27T06:49:28.568Z,49.00
2018-09-27T06:50:34.062Z,48.90
2018-09-27T06:51:39.366Z,48.70
2018-09-27T06:52:44.845Z,48.60
2018-09-27T06:53:50.210Z,49.30
2018-09-27T06:54:55.741Z,48.50
2018-09-27T06:56:01.229Z,48.50
2018-09-27T06:57:06.486Z,48.60
2018-09-27T06:58:11.814Z,48.60
2018-09-27T06:59:17.392Z,48.70
2018-09-27T07:00:22.801Z,48.80
2018-09-27T07:01:28.175Z,49.00
2018-09-27T07:02:33.629Z,49.00
2018-09-27T07:03:39.059Z,49.00
2018-09-27T07:04:44.529Z,49.20
2018-09-27T07:05:49.802Z,49.20
2018-09-27T07:07:20.520Z,49.20
2018-09-27T07:08:28.195Z,49.20
2018-09-27T07:09:35.698Z,49.20
2018-09-27T07:10:40.991Z,49.30
2018-09-27T07:11:46.327Z,49.70
2018-09-27T07:12:51.651Z,49.50
2018-09-27T07:13:56.944Z,49.50
2018-09-27T07:15:02.201Z,49.50
2018-09-27T07:16:07.548Z,49.60
2018-09-27T07:17:12.801Z,49.60
2018-09-27T07:18:18.067Z,49.70
2018-09-27T07:19:23.335Z,49.60
2018-09-27T07:20:28.614Z,49.70
2018-09-27T07:21:33.913Z,49.70
2018-09-27T07:22:39.182Z,49.70
2018-09-27T07:23:44.478Z,49.80
2018-09-27T07:24:50.589Z,49.90
2018-09-27T07:25:56.172Z,49.60
2018-09-27T07:27:01.524Z,49.50
2018-09-27T07:28:06.764Z,49.50
2018-09-27T07:29:11.970Z,49.60
2018-09-27T07:30:17.453Z,49.60
2018-09-27T07:31:22.747Z,49.70
2018-09-27T07:32:28.126Z,49.80
2018-09-27T07:33:33.318Z,49.80
2018-09-27T07:34:38.684Z,49.80
2018-09-27T07:35:44.006Z,49.80
2018-09-27T07:36:49.364Z,49.80
2018-09-27T07:37:54.840Z,49.80
2018-09-27T07:39:00.106Z,49.80
2018-09-27T07:40:05.432Z,49.70
2018-09-27T07:41:10.831Z,49.90
2018-09-27T07:42:16.276Z,50.00
2018-09-27T07:43:21.575Z,50.10
2018-09-27T07:44:26.970Z,50.10
2018-09-27T07:45:33.129Z,50.30
2018-09-27T07:46:38.603Z,50.40
2018-09-27T07:47:43.878Z,50.40
2018-09-27T07:48:49.175Z,50.30
2018-09-27T07:49:54.707Z,50.20
2018-09-27T07:51:00.846Z,50.20
2018-09-27T07:52:06.179Z,50.20
2018-09-27T07:53:11.665Z,50.30
2018-09-27T07:54:17.123Z,50.40
2018-09-27T07:55:22.403Z,50.50
2018-09-27T07:56:27.725Z,50.60
2018-09-27T07:57:32.988Z,50.60
2018-09-27T07:58:38.262Z,51.40
2018-09-27T07:59:43.514Z,50.70
2018-09-27T08:00:48.802Z,50.70
2018-09-27T08:01:54.158Z,50.70
2018-09-27T08:02:59.489Z,50.80
2018-09-27T08:04:04.778Z,50.80
2018-09-27T08:05:10.062Z,50.80
2018-09-27T08:06:15.421Z,50.90
2018-09-27T08:07:20.774Z,51.60
2018-09-27T08:08:26.149Z,51.00
2018-09-27T08:09:31.480Z,51.00
2018-09-27T08:10:36.832Z,50.90
2018-09-27T08:11:42.312Z,50.90
2018-09-27T08:12:47.741Z,51.00
2018-09-27T08:13:53.102Z,51.00
2018-09-27T08:14:58.416Z,51.00
2018-09-27T08:16:03.663Z,51.00
2018-09-27T08:17:09.221Z,51.10
2018-09-27T08:18:14.741Z,51.10
2018-09-27T08:19:20.130Z,51.00
2018-09-27T08:20:25.544Z,50.90
2018-09-27T08:21:30.859Z,50.80
2018-09-27T08:22:36.097Z,50.80
2018-09-27T08:23:41.354Z,51.40
2018-09-27T08:24:46.627Z,50.90
2018-09-27T08:25:51.910Z,51.00
2018-09-27T08:26:57.169Z,50.90
2018-09-27T08:28:02.457Z,50.90
2018-09-27T08:29:07.750Z,50.80
2018-09-27T08:30:13.103Z,50.70
2018-09-27T08:31:18.435Z,50.70
2018-09-27T08:32:23.718Z,50.70
2018-09-27T08:33:29.041Z,50.60
2018-09-27T08:34:34.300Z,50.70
2018-09-27T08:35:39.633Z,50.90
2018-09-27T08:36:44.982Z,51.00
2018-09-27T08:37:50.283Z,51.10
2018-09-27T08:38:55.636Z,51.10
2018-09-27T08:40:01.000Z,51.10
2018-09-27T08:41:06.223Z,51.20
2018-09-27T08:42:11.489Z,51.30
2018-09-27T08:43:16.764Z,51.30
2018-09-27T08:44:22.179Z,51.30
2018-09-27T08:45:27.638Z,51.30
2018-09-27T08:46:32.821Z,51.40
2018-09-27T08:47:38.197Z,51.40
2018-09-27T08:48:43.428Z,51.40
2018-09-27T08:49:48.880Z,51.40
2018-09-27T08:50:54.214Z,51.50
2018-09-27T08:51:59.469Z,51.50
2018-09-27T08:53:04.814Z,51.60
2018-09-27T08:54:10.127Z,51.60
2018-09-27T08:55:15.574Z,51.70
2018-09-27T08:56:20.925Z,51.70
2018-09-27T08:57:26.392Z,51.80
2018-09-27T08:58:31.735Z,51.80
2018-09-27T08:59:37.097Z,51.90
2018-09-27T09:00:42.382Z,51.80
2018-09-27T09:01:47.738Z,51.70
2018-09-27T09:02:53.060Z,51.80
2018-09-27T09:03:59.225Z,51.80
2018-09-27T09:05:04.427Z,51.80
2018-09-27T09:06:09.838Z,51.70
2018-09-27T09:07:15.153Z,51.70
2018-09-27T09:08:20.461Z,52.20
2018-09-27T09:09:25.844Z,52.00
2018-09-27T09:10:31.277Z,51.80
2018-09-27T09:11:36.581Z,51.60
2018-09-27T09:12:41.867Z,51.70
2018-09-27T09:13:47.178Z,51.80
2018-09-27T09:14:52.473Z,51.80
2018-09-27T09:15:57.758Z,52.00
2018-09-27T09:17:03.116Z,52.30
2018-09-27T09:18:08.391Z,52.40
2018-09-27T09:19:13.636Z,52.40
2018-09-27T09:20:18.896Z,52.50
2018-09-27T09:21:24.477Z,52.90
2018-09-27T09:22:29.908Z,52.40
2018-09-27T09:23:35.356Z,52.50
2018-09-27T09:24:40.780Z,52.20
2018-09-27T09:25:46.104Z,52.70
2018-09-27T09:26:51.367Z,52.80
2018-09-27T09:27:56.699Z,53.00
2018-09-27T09:29:02.102Z,53.50
2018-09-27T09:30:07.445Z,53.10
2018-09-27T09:31:12.925Z,52.60
2018-09-27T09:32:18.270Z,52.80
2018-09-27T09:33:23.616Z,52.90
2018-09-27T09:34:28.916Z,52.80
2018-09-27T09:35:34.480Z,52.50
2018-09-27T09:36:39.868Z,52.20
2018-09-27T09:37:45.238Z,52.10
2018-09-27T09:38:50.925Z,52.00
2018-09-27T09:39:56.200Z,52.10
2018-09-27T09:41:01.625Z,52.20
2018-09-27T09:42:07.118Z,52.20
2018-09-27T09:43:12.587Z,52.40
2018-09-27T09:44:17.919Z,52.10
2018-09-27T09:45:23.330Z,52.00
2018-09-27T09:46:28.682Z,52.00
2018-09-27T09:47:34.013Z,52.00
2018-09-27T09:48:39.384Z,52.20
2018-09-27T09:49:44.656Z,52.80
2018-09-27T09:50:50.011Z,52.90
2018-09-27T09:51:55.292Z,52.80
2018-09-27T09:53:00.654Z,53.00
2018-09-27T09:54:06.038Z,53.10
2018-09-27T09:55:11.403Z,52.40
2018-09-27T09:56:16.713Z,52.00
2018-09-27T09:57:22.022Z,52.00
2018-09-27T09:58:27.344Z,52.10
2018-09-27T09:59:32.647Z,52.00
2018-09-27T10:00:37.960Z,53.80
2018-09-27T10:01:43.198Z,54.30
2018-09-27T10:02:48.451Z,53.70
2018-09-27T10:03:54.189Z,53.40
2018-09-27T10:04:59.438Z,53.10
2018-09-27T10:06:04.795Z,53.40
2018-09-27T10:07:10.086Z,53.00
2018-09-27T10:08:15.377Z,53.60
2018-09-27T10:09:20.690Z,53.50
2018-09-27T10:10:26.011Z,53.60
2018-09-27T10:11:31.290Z,53.10
2018-09-27T10:12:36.539Z,53.00
2018-09-27T10:13:41.913Z,52.70
2018-09-27T10:14:47.287Z,52.70
2018-09-27T10:15:52.763Z,52.60
2018-09-27T10:16:58.094Z,52.30
2018-09-27T10:18:03.572Z,52.70
2018-09-27T10:19:08.838Z,52.80
2018-09-27T10:20:14.106Z,52.80
2018-09-27T10:21:20.165Z,52.90
2018-09-27T10:22:25.499Z,52.80
2018-09-27T10:23:30.862Z,53.20
2018-09-27T10:24:36.233Z,53.20
2018-09-27T10:25:41.565Z,53.60
2018-09-27T10:26:46.890Z,53.20
2018-09-27T10:27:52.388Z,52.80
2018-09-27T10:28:57.715Z,52.90
2018-09-27T10:30:03.463Z,53.00
2018-09-27T10:31:08.838Z,52.80
2018-09-27T10:32:14.203Z,52.60
2018-09-27T10:33:19.641Z,52.40
2018-09-27T10:34:25.049Z,52.80
2018-09-27T10:35:30.299Z,53.00
2018-09-27T10:36:35.718Z,53.00
2018-09-27T10:37:41.042Z,53.10
2018-09-27T10:38:46.901Z,52.90
2018-09-27T10:39:52.654Z,53.00
2018-09-27T10:40:57.896Z,52.80
2018-09-27T10:42:03.208Z,53.80
2018-09-27T10:43:08.459Z,54.50
2018-09-27T10:44:13.778Z,54.30
2018-09-27T10:45:19.023Z,54.50
2018-09-27T10:46:24.612Z,54.40
2018-09-27T10:47:29.872Z,54.30
2018-09-27T10:48:35.323Z,54.30
2018-09-27T10:49:40.581Z,53.80
2018-09-27T10:50:45.905Z,53.60
2018-09-27T10:51:51.200Z,53.80
2018-09-27T10:52:56.489Z,53.90
2018-09-27T10:54:01.755Z,54.50
2018-09-27T10:55:07.065Z,53.70
2018-09-27T10:56:12.310Z,53.90
2018-09-27T10:57:17.744Z,53.80
2018-09-27T10:58:22.793Z,54.60
2018-09-27T10:59:28.106Z,55.10
2018-09-27T11:00:33.633Z,54.70
2018-09-27T11:01:38.892Z,54.20
2018-09-27T11:02:44.144Z,54.70
2018-09-27T11:03:50.439Z,54.80
2018-09-27T11:04:55.827Z,54.30
2018-09-27T11:06:01.168Z,54.90
2018-09-27T11:07:06.473Z,54.30
2018-09-27T11:08:11.706Z,54.60
2018-09-27T11:09:16.951Z,54.10
2018-09-27T11:10:22.614Z,53.90
2018-09-27T11:11:28.021Z,53.80
2018-09-27T11:12:33.233Z,54.70
2018-09-27T11:13:38.486Z,55.10
2018-09-27T11:14:43.834Z,55.60
2018-09-27T11:15:49.101Z,55.10
2018-09-27T11:16:54.420Z,54.70
2018-09-27T11:17:59.670Z,56.00
2018-09-27T11:19:05.368Z,56.10
2018-09-27T11:20:10.659Z,55.20
2018-09-27T11:21:15.920Z,54.40
2018-09-27T11:22:21.174Z,54.10
2018-09-27T11:23:26.552Z,54.50
2018-09-27T11:24:31.899Z,54.10
2018-09-27T11:25:37.194Z,54.20
2018-09-27T11:26:42.463Z,54.10
2018-09-27T11:27:47.748Z,55.70
2018-09-27T11:28:53.399Z,55.00
2018-09-27T11:29:58.598Z,54.60
2018-09-27T11:31:03.915Z,54.30
2018-09-27T11:32:09.219Z,53.90
2018-09-27T11:33:14.535Z,53.80
2018-09-27T11:34:19.777Z,53.90
2018-09-27T11:35:25.117Z,53.70
2018-09-27T11:36:30.401Z,53.80
2018-09-27T11:37:35.715Z,53.60
2018-09-27T11:38:41.756Z,53.80
2018-09-27T11:39:47.013Z,53.80
2018-09-27T11:40:52.260Z,53.80
2018-09-27T11:41:57.620Z,53.40
2018-09-27T11:43:03.443Z,53.30
2018-09-27T11:44:08.895Z,53.30
2018-09-27T11:45:14.206Z,53.20
2018-09-27T11:46:19.499Z,53.10
2018-09-27T11:47:26.221Z,53.10
2018-09-27T11:48:31.576Z,53.00
2018-09-27T11:49:37.119Z,53.30
2018-09-27T11:50:42.279Z,53.80
2018-09-27T11:51:47.550Z,53.70
2018-09-27T11:52:52.833Z,53.70
2018-09-27T11:53:58.595Z,53.50
2018-09-27T11:55:04.221Z,53.30
2018-09-27T11:56:09.499Z,53.20
2018-09-27T11:57:14.863Z,53.20
2018-09-27T11:58:20.172Z,53.20
2018-09-27T11:59:25.508Z,53.40
2018-09-27T12:00:31.090Z,53.30
2018-09-27T12:01:36.375Z,53.50
2018-09-27T12:02:41.663Z,53.40
2018-09-27T12:03:46.952Z,53.30
2018-09-27T12:04:52.180Z,53.60
2018-09-27T12:05:57.689Z,53.40
2018-09-27T12:07:02.980Z,53.30
2018-09-27T12:08:08.235Z,53.20
2018-09-27T12:09:13.483Z,53.20
2018-09-27T12:10:18.821Z,53.10
2018-09-27T12:11:24.165Z,53.10
2018-09-27T12:12:29.393Z,53.20
2018-09-27T12:13:34.644Z,53.30
2018-09-27T12:14:39.902Z,53.30
2018-09-27T12:15:45.223Z,53.30
2018-09-27T12:16:50.663Z,53.80
2018-09-27T12:17:56.055Z,53.60
2018-09-27T12:19:01.695Z,53.40
2018-09-27T12:20:07.192Z,53.30
2018-09-27T12:21:12.556Z,53.20
2018-09-27T12:22:17.932Z,53.20
2018-09-27T12:23:23.238Z,53.20
2018-09-27T12:24:28.578Z,53.20
2018-09-27T12:25:33.763Z,53.40
2018-09-27T12:26:39.125Z,53.70
2018-09-27T12:27:44.464Z,53.50
2018-09-27T12:28:49.712Z,53.40
2018-09-27T12:29:55.005Z,53.30
2018-09-27T12:31:00.258Z,53.40
2018-09-27T12:32:05.512Z,53.40
2018-09-27T12:33:10.699Z,53.30
2018-09-27T12:34:16.012Z,53.40
2018-09-27T12:35:21.460Z,53.30
2018-09-27T12:36:26.775Z,53.40
2018-09-27T12:37:32.025Z,53.40
2018-09-27T12:38:37.656Z,53.40
2018-09-27T12:39:42.935Z,53.50
2018-09-27T12:40:48.217Z,53.50
2018-09-27T12:41:53.582Z,53.80
2018-09-27T12:42:58.990Z,53.70
2018-09-27T12:44:04.423Z,53.60
2018-09-27T12:45:09.824Z,53.50
2018-09-27T12:46:14.990Z,53.50
2018-09-27T12:47:20.453Z,53.60
2018-09-27T12:48:25.803Z,53.40
2018-09-27T12:49:31.019Z,53.70
2018-09-27T12:50:36.451Z,53.70
2018-09-27T12:51:41.778Z,53.60
2018-09-27T12:52:47.061Z,53.60
2018-09-27T12:53:52.695Z,53.60
2018-09-27T12:54:57.963Z,53.60
2018-09-27T12:56:03.356Z,53.60
2018-09-27T12:57:08.798Z,53.70
2018-09-27T12:58:14.015Z,53.70
2018-09-27T12:59:19.412Z,53.60
2018-09-27T13:00:24.632Z,53.60
2018-09-27T13:01:30.389Z,53.70
2018-09-27T13:02:36.092Z,54.40
2018-09-27T13:03:41.371Z,53.80
2018-09-27T13:04:46.571Z,53.80
2018-09-27T13:05:51.870Z,53.80
2018-09-27T13:06:57.144Z,53.80
2018-09-27T13:08:02.388Z,53.80
2018-09-27T13:09:07.714Z,54.40
2018-09-27T13:10:13.131Z,54.20
2018-09-27T13:11:18.430Z,54.00
2018-09-27T13:12:23.732Z,53.90
2018-09-27T13:13:29.117Z,53.90
2018-09-27T13:14:34.356Z,53.90
2018-09-27T13:15:39.652Z,54.80
2018-09-27T13:16:44.895Z,54.80
2018-09-27T13:17:50.103Z,55.60
2018-09-27T13:18:57.939Z,55.70
2018-09-27T13:20:00.794Z,55.90
2018-09-27T13:21:06.028Z,55.20
2018-09-27T13:22:11.294Z,54.80
2018-09-27T13:23:16.572Z,55.10
2018-09-27T13:24:21.893Z,54.80
2018-09-27T13:25:27.120Z,54.80
2018-09-27T13:26:32.478Z,55.30
2018-09-27T13:27:37.709Z,55.30
2018-09-27T13:28:43.029Z,55.50
2018-09-27T13:29:48.322Z,55.90
2018-09-27T13:30:53.658Z,56.10
2018-09-27T13:31:58.930Z,56.20
2018-09-27T13:33:04.297Z,56.60
2018-09-27T13:34:09.675Z,56.90
2018-09-27T13:35:14.956Z,57.00
2018-09-27T13:36:21.211Z,56.60
2018-09-27T13:37:26.462Z,56.10
2018-09-27T13:38:31.754Z,55.60
2018-09-27T13:39:37.025Z,55.40
2018-09-27T13:40:42.296Z,54.70
2018-09-27T13:41:47.628Z,55.10
2018-09-27T13:42:53.013Z,54.70
2018-09-27T13:43:58.293Z,55.60
2018-09-27T13:45:03.757Z,56.20
2018-09-27T13:46:09.056Z,56.50
2018-09-27T13:47:14.304Z,56.70
2018-09-27T13:48:19.555Z,57.00
2018-09-27T13:49:24.852Z,56.10
2018-09-27T13:50:30.096Z,55.80
2018-09-27T13:51:35.425Z,55.20
2018-09-27T13:52:40.655Z,54.90
2018-09-27T13:53:46.287Z,54.60
2018-09-27T13:54:51.576Z,54.70
2018-09-27T13:55:56.836Z,54.70
2018-09-27T13:57:02.238Z,55.00
2018-09-27T13:58:07.400Z,54.90
2018-09-27T13:59:12.627Z,54.60
2018-09-27T14:00:17.913Z,54.70